createdAt,value
2019-03-03T00:02:01.239Z,5.20
2019-03-03T00:04:25.263Z,5.16
2019-03-03T00:06:51.500Z,5.14
2019-03-03T00:09:17.807Z,5.12
2019-03-03T00:11:44.122Z,5.06
2019-03-03T00:14:10.431Z,5.00
2019-03-03T00:16:36.746Z,4.92
2019-03-03T00:19:03.055Z,4.86
2019-03-03T00:21:29.423Z,4.81
2019-03-03T00:23:55.710Z,4.83
2019-03-03T00:26:21.989Z,4.84
2019-03-03T00:28:48.299Z,4.80
2019-03-03T00:31:14.608Z,4.78
2019-03-03T00:33:40.919Z,4.74
2019-03-03T00:36:07.227Z,4.71
2019-03-03T00:38:33.536Z,4.72
2019-03-03T00:40:59.838Z,4.68
2019-03-03T00:43:26.158Z,4.69
2019-03-03T00:45:52.465Z,4.65
2019-03-03T00:48:18.776Z,4.62
2019-03-03T00:50:45.123Z,4.66
2019-03-03T00:53:11.401Z,4.64
2019-03-03T00:55:37.706Z,4.58
2019-03-03T00:58:04.036Z,4.58
2019-03-03T01:00:30.344Z,4.53
2019-03-03T01:02:56.661Z,4.49
2019-03-03T01:05:22.969Z,4.46
2019-03-03T01:07:49.283Z,4.43
2019-03-03T01:10:15.589Z,4.36
2019-03-03T01:12:42.000Z,4.32
2019-03-03T01:15:08.307Z,4.36
2019-03-03T01:17:34.635Z,4.35
2019-03-03T01:20:00.942Z,4.32
2019-03-03T01:22:27.256Z,4.33
2019-03-03T01:24:53.555Z,4.33
2019-03-03T01:27:19.870Z,4.33
2019-03-03T01:29:46.173Z,4.36
2019-03-03T01:32:12.486Z,4.35
2019-03-03T01:34:38.793Z,4.34
2019-03-03T01:37:05.101Z,4.33
2019-03-03T01:39:31.405Z,4.36
2019-03-03T01:41:57.742Z,4.33
2019-03-03T01:44:24.050Z,4.33
2019-03-03T01:46:50.355Z,4.31
2019-03-03T01:49:16.675Z,4.29
2019-03-03T01:51:42.982Z,4.29
2019-03-03T01:54:09.287Z,4.29
2019-03-03T01:56:35.592Z,4.27
2019-03-03T01:59:01.906Z,4.20
2019-03-03T02:01:28.211Z,4.20
2019-03-03T02:03:54.516Z,4.19
2019-03-03T02:06:20.823Z,4.18
2019-03-03T02:08:47.136Z,4.15
2019-03-03T02:11:13.444Z,4.18
2019-03-03T02:13:39.748Z,4.23
2019-03-03T02:16:06.083Z,4.24
2019-03-03T02:18:32.393Z,4.24
2019-03-03T02:20:58.702Z,4.25
2019-03-03T02:23:25.010Z,4.28
2019-03-03T02:25:51.316Z,4.24
2019-03-03T02:28:17.624Z,4.22
2019-03-03T02:30:43.937Z,4.28
2019-03-03T02:33:10.269Z,4.29
2019-03-03T02:35:36.574Z,4.32
2019-03-03T02:38:02.891Z,4.29
2019-03-03T02:40:29.197Z,4.32
2019-03-03T02:42:55.505Z,4.38
2019-03-03T02:45:21.820Z,4.39
2019-03-03T02:47:48.122Z,4.38
2019-03-03T02:50:14.438Z,4.42
2019-03-03T02:52:40.750Z,4.43
2019-03-03T02:55:07.051Z,4.43
2019-03-03T02:57:33.393Z,4.40
2019-03-03T02:59:59.711Z,4.44
2019-03-03T03:02:26.020Z,4.45
2019-03-03T03:04:52.325Z,4.44
2019-03-03T03:07:18.645Z,4.46
2019-03-03T03:09:44.945Z,4.48
2019-03-03T03:12:11.260Z,4.50
2019-03-03T03:14:37.582Z,4.49
2019-03-03T03:17:03.878Z,4.54
2019-03-03T03:19:30.197Z,4.62
2019-03-03T03:21:56.499Z,4.61
2019-03-03T03:24:22.810Z,4.60
2019-03-03T03:26:49.126Z,4.57
2019-03-03T03:29:15.428Z,4.57
2019-03-03T03:31:41.738Z,4.62
2019-03-03T03:34:08.046Z,4.59
2019-03-03T03:36:36.691Z,4.62
2019-03-03T03:39:00.665Z,4.56
2019-03-03T03:41:26.999Z,4.40
2019-03-03T03:43:53.293Z,4.36
2019-03-03T03:46:19.601Z,4.32
2019-03-03T03:48:45.908Z,4.17
2019-03-03T03:51:12.223Z,3.86
2019-03-03T03:53:38.529Z,3.58
2019-03-03T03:56:04.845Z,3.22
2019-03-03T03:58:31.161Z,2.98
2019-03-03T04:00:57.474Z,2.57
2019-03-03T04:03:23.780Z,2.47
2019-03-03T04:05:50.090Z,2.45
2019-03-03T04:08:16.403Z,2.24
2019-03-03T04:10:42.706Z,2.07
2019-03-03T04:13:09.014Z,2.00
2019-03-03T04:15:35.320Z,2.02
2019-03-03T04:18:01.635Z,1.98
2019-03-03T04:20:27.941Z,1.85
2019-03-03T04:22:54.261Z,1.72
2019-03-03T04:25:20.561Z,1.75
2019-03-03T04:27:46.917Z,1.82
2019-03-03T04:30:13.226Z,1.83
2019-03-03T04:32:39.534Z,1.80
2019-03-03T04:35:05.842Z,1.79
2019-03-03T04:37:32.153Z,1.79
2019-03-03T04:39:58.465Z,1.79
2019-03-03T04:42:24.773Z,1.76
2019-03-03T04:44:51.088Z,1.77
2019-03-03T04:47:17.397Z,1.80
2019-03-03T04:49:43.715Z,1.83
2019-03-03T04:52:10.025Z,1.80
2019-03-03T04:54:36.337Z,1.86
2019-03-03T04:57:02.646Z,1.87
2019-03-03T04:59:28.980Z,1.94
2019-03-03T05:01:55.285Z,1.96
2019-03-03T05:04:21.592Z,2.12
2019-03-03T05:06:47.899Z,2.19
2019-03-03T05:09:14.211Z,2.21
2019-03-03T05:11:40.512Z,2.20
2019-03-03T05:14:06.835Z,2.36
2019-03-03T05:16:33.163Z,2.40
2019-03-03T05:18:59.472Z,2.27
2019-03-03T05:21:25.782Z,2.14
2019-03-03T05:23:52.105Z,2.11
2019-03-03T05:26:18.411Z,2.03
2019-03-03T05:28:44.728Z,2.17
2019-03-03T05:31:11.041Z,2.25
2019-03-03T05:33:37.354Z,2.29
2019-03-03T05:36:03.669Z,2.29
2019-03-03T05:38:30.025Z,2.26
2019-03-03T05:40:56.339Z,2.44
2019-03-03T05:43:22.643Z,2.59
2019-03-03T05:45:49.210Z,2.64
2019-03-03T05:48:15.481Z,2.52
2019-03-03T05:50:41.799Z,2.58
2019-03-03T05:53:08.233Z,2.57
2019-03-03T05:55:34.565Z,2.50
2019-03-03T05:58:00.882Z,2.55
2019-03-03T06:00:27.193Z,2.69
2019-03-03T06:02:53.495Z,2.80
2019-03-03T06:05:20.064Z,2.82
2019-03-03T06:07:46.370Z,2.78
2019-03-03T06:10:12.673Z,2.71
2019-03-03T06:12:38.988Z,2.70
2019-03-03T06:15:05.295Z,2.73
2019-03-03T06:17:31.599Z,2.80
2019-03-03T06:19:57.912Z,2.82
2019-03-03T06:22:24.219Z,2.94
2019-03-03T06:24:50.532Z,3.06
2019-03-03T06:27:16.840Z,3.22
2019-03-03T06:29:43.167Z,3.30
2019-03-03T06:32:09.468Z,3.45
2019-03-03T06:34:35.777Z,3.54
2019-03-03T06:37:02.102Z,3.49
2019-03-03T06:39:28.447Z,3.45
2019-03-03T06:41:54.759Z,3.38
2019-03-03T06:44:21.065Z,3.52
2019-03-03T06:46:47.375Z,3.65
2019-03-03T06:49:13.687Z,3.74
2019-03-03T06:51:40.036Z,3.85
2019-03-03T06:54:06.317Z,3.82
2019-03-03T06:56:37.438Z,3.95
2019-03-03T06:59:10.156Z,4.07
2019-03-03T07:01:35.459Z,4.19
2019-03-03T07:04:01.673Z,4.13
2019-03-03T07:06:27.989Z,4.29
2019-03-03T07:08:54.297Z,4.27
2019-03-03T07:11:20.606Z,4.35
2019-03-03T07:13:46.919Z,4.36
2019-03-03T07:16:13.225Z,4.52
2019-03-03T07:18:39.592Z,4.56
2019-03-03T07:21:14.513Z,4.68
2019-03-03T07:23:39.209Z,4.64
2019-03-03T07:26:05.515Z,4.73
2019-03-03T07:28:31.821Z,4.78
2019-03-03T07:30:58.136Z,4.85
2019-03-03T07:33:24.439Z,4.95
2019-03-03T07:35:50.753Z,4.95
2019-03-03T07:38:17.055Z,4.95
2019-03-03T07:40:44.181Z,4.83
2019-03-03T07:43:10.484Z,4.73
2019-03-03T07:45:36.789Z,4.66
2019-03-03T07:48:03.103Z,4.64
2019-03-03T07:50:29.412Z,4.58
2019-03-03T07:52:55.725Z,4.55
2019-03-03T07:55:22.027Z,4.54
2019-03-03T07:57:48.341Z,4.64
2019-03-03T08:00:14.645Z,4.66
2019-03-03T08:02:40.958Z,4.60
2019-03-03T08:05:07.265Z,4.65
2019-03-03T08:07:33.577Z,4.85
2019-03-03T08:09:59.890Z,5.03
2019-03-03T08:12:26.230Z,5.12
2019-03-03T08:14:52.538Z,5.24
2019-03-03T08:17:18.846Z,5.31
2019-03-03T08:19:45.180Z,5.37
2019-03-03T08:22:11.491Z,5.54
2019-03-03T08:24:37.798Z,5.63
2019-03-03T08:27:04.113Z,5.70
2019-03-03T08:29:30.451Z,5.90
2019-03-03T08:31:56.757Z,6.07
2019-03-03T08:34:23.066Z,6.32
2019-03-03T08:36:49.371Z,6.48
2019-03-03T08:39:15.680Z,6.61
2019-03-03T08:41:42.059Z,6.66
2019-03-03T08:44:08.368Z,6.81
2019-03-03T08:46:34.718Z,6.97
2019-03-03T08:49:01.036Z,7.12
2019-03-03T08:51:27.348Z,7.16
2019-03-03T08:53:53.656Z,7.32
2019-03-03T08:56:19.965Z,7.37
2019-03-03T08:58:48.179Z,7.63
2019-03-03T09:01:12.792Z,7.78
2019-03-03T09:03:39.116Z,7.97
2019-03-03T09:06:05.851Z,7.98
2019-03-03T09:08:32.039Z,8.11
2019-03-03T09:10:58.353Z,8.15
2019-03-03T09:13:24.655Z,8.09
2019-03-03T09:15:50.968Z,7.97
2019-03-03T09:18:19.966Z,8.07
2019-03-03T09:20:43.792Z,8.08
2019-03-03T09:23:10.101Z,8.01
2019-03-03T09:25:36.408Z,7.91
2019-03-03T09:28:02.722Z,8.00
2019-03-03T09:30:29.025Z,8.11
2019-03-03T09:32:55.330Z,8.16
2019-03-03T09:35:21.642Z,8.07
2019-03-03T09:37:47.959Z,8.00
2019-03-03T09:40:14.399Z,8.15
2019-03-03T09:42:40.668Z,8.48
2019-03-03T09:45:07.004Z,8.52
2019-03-03T09:47:33.310Z,8.54
2019-03-03T09:49:59.623Z,8.53
2019-03-03T09:52:25.933Z,8.56
2019-03-03T09:54:52.246Z,8.63
2019-03-03T09:57:26.564Z,8.65
2019-03-03T09:59:52.849Z,8.71
2019-03-03T10:02:19.156Z,8.72
2019-03-03T10:04:45.491Z,8.78
2019-03-03T10:07:13.633Z,8.88
2019-03-03T10:09:38.106Z,8.90
2019-03-03T10:12:04.422Z,8.90
2019-03-03T10:14:30.728Z,8.80
2019-03-03T10:16:57.043Z,8.87
2019-03-03T10:19:23.359Z,9.05
2019-03-03T10:21:49.702Z,9.22
2019-03-03T10:24:17.787Z,9.37
2019-03-03T10:26:44.086Z,9.26
2019-03-03T10:29:12.195Z,9.33
2019-03-03T10:31:38.341Z,9.42
2019-03-03T10:34:04.660Z,9.39
2019-03-03T10:36:30.961Z,9.12
2019-03-03T10:38:57.275Z,8.87
2019-03-03T10:41:23.590Z,8.81
2019-03-03T10:43:49.897Z,8.69
2019-03-03T10:46:17.205Z,8.70
2019-03-03T10:48:43.507Z,8.68
2019-03-03T10:51:09.820Z,8.54
2019-03-03T10:53:36.130Z,8.43
2019-03-03T10:56:02.450Z,8.39
2019-03-03T10:58:28.882Z,8.32
2019-03-03T11:00:55.234Z,8.24
2019-03-03T11:03:21.546Z,8.13
2019-03-03T11:05:48.263Z,8.02
2019-03-03T11:08:14.586Z,7.95
2019-03-03T11:10:40.897Z,7.91
2019-03-03T11:13:07.205Z,7.91
2019-03-03T11:15:33.530Z,7.98
2019-03-03T11:17:59.856Z,7.82
2019-03-03T11:20:26.227Z,7.73
2019-03-03T11:22:52.529Z,7.74
2019-03-03T11:25:18.872Z,7.73
2019-03-03T11:27:45.144Z,7.81
2019-03-03T11:30:13.606Z,7.92
2019-03-03T11:32:37.921Z,8.00
2019-03-03T11:35:04.283Z,8.06
2019-03-03T11:37:30.594Z,7.99
2019-03-03T11:42:43.056Z,7.92
2019-03-03T11:45:16.336Z,7.87
2019-03-03T11:47:38.403Z,7.91
2019-03-03T11:50:04.804Z,8.00
2019-03-03T11:52:31.078Z,8.07
2019-03-03T11:55:15.821Z,8.07
2019-03-03T11:57:42.134Z,7.99
2019-03-03T12:00:09.920Z,8.04
2019-03-03T12:02:34.944Z,8.08
2019-03-03T12:05:01.255Z,8.18
2019-03-03T12:07:27.560Z,8.17
2019-03-03T12:09:53.869Z,8.18
2019-03-03T12:12:20.183Z,8.26
2019-03-03T12:14:46.495Z,8.44
2019-03-03T12:17:12.810Z,8.64
2019-03-03T12:19:39.460Z,8.65
2019-03-03T12:22:05.768Z,8.53
2019-03-03T12:24:32.076Z,8.28
2019-03-03T12:26:58.415Z,8.37
2019-03-03T12:29:24.729Z,8.48
2019-03-03T12:31:51.033Z,8.53
2019-03-03T12:34:17.355Z,8.56
2019-03-03T12:36:43.685Z,8.56
2019-03-03T12:39:09.992Z,8.39
2019-03-03T12:41:36.331Z,8.42
2019-03-03T12:44:02.759Z,8.48
2019-03-03T12:46:29.036Z,8.59
2019-03-03T12:48:55.349Z,8.53
2019-03-03T12:51:28.693Z,8.48
2019-03-03T12:53:54.807Z,8.62
2019-03-03T12:56:21.133Z,8.69
2019-03-03T12:58:47.475Z,8.81
2019-03-03T13:01:13.782Z,8.93
2019-03-03T13:03:43.413Z,9.93
2019-03-03T13:06:09.898Z,10.64
2019-03-03T13:08:36.209Z,10.57
2019-03-03T13:11:02.526Z,10.24
2019-03-03T13:13:28.958Z,10.20
2019-03-03T13:15:55.384Z,10.06
2019-03-03T13:18:21.688Z,9.98
2019-03-03T13:20:51.302Z,10.09
2019-03-03T13:23:17.617Z,9.73
2019-03-03T13:25:43.991Z,9.80
2019-03-03T13:28:10.266Z,10.12
2019-03-03T13:30:36.578Z,10.14
2019-03-03T13:33:02.894Z,10.06
2019-03-03T13:35:29.251Z,9.97
2019-03-03T13:37:55.540Z,10.03
2019-03-03T13:40:21.839Z,9.96
2019-03-03T13:42:48.173Z,9.96
2019-03-03T13:45:14.513Z,9.96
2019-03-03T13:47:40.820Z,9.94
2019-03-03T13:50:07.133Z,10.14
2019-03-03T13:52:33.441Z,10.14
2019-03-03T13:55:00.345Z,10.25
2019-03-03T13:57:26.554Z,10.50
2019-03-03T13:59:52.876Z,10.52
2019-03-03T14:02:19.191Z,10.35
2019-03-03T14:04:45.506Z,10.28
2019-03-03T14:07:11.814Z,10.22
2019-03-03T14:09:38.157Z,10.23
2019-03-03T14:12:04.524Z,10.12
2019-03-03T14:14:30.831Z,9.91
2019-03-03T14:16:57.143Z,9.72
2019-03-03T14:19:23.449Z,9.48
2019-03-03T14:21:49.784Z,9.48
2019-03-03T14:24:16.094Z,9.37
2019-03-03T14:26:42.397Z,9.31
2019-03-03T14:29:08.701Z,9.25
2019-03-03T14:31:35.015Z,9.13
2019-03-03T14:34:01.322Z,9.10
2019-03-03T14:36:27.670Z,9.04
2019-03-03T14:38:53.969Z,9.02
2019-03-03T14:41:20.291Z,9.03
2019-03-03T14:43:46.596Z,9.02
2019-03-03T14:46:12.907Z,9.02
2019-03-03T14:48:39.216Z,8.98
2019-03-03T14:51:05.527Z,9.00
2019-03-03T14:53:31.855Z,9.06
2019-03-03T14:55:58.165Z,9.06
2019-03-03T14:58:24.508Z,9.06
2019-03-03T15:00:50.807Z,9.00
2019-03-03T15:03:17.110Z,8.99
2019-03-03T15:05:43.424Z,8.97
2019-03-03T15:08:09.733Z,8.95
2019-03-03T15:10:36.048Z,8.86
2019-03-03T15:13:02.360Z,8.86
2019-03-03T15:15:28.723Z,8.80
2019-03-03T15:17:55.069Z,8.84
2019-03-03T15:20:21.383Z,8.87
2019-03-03T15:22:47.687Z,8.85
2019-03-03T15:25:13.995Z,8.80
2019-03-03T15:27:40.310Z,8.83
2019-03-03T15:30:06.616Z,8.85
2019-03-03T15:32:32.965Z,8.84
2019-03-03T15:34:59.282Z,8.85
2019-03-03T15:37:25.588Z,8.82
2019-03-03T15:39:51.895Z,8.85
2019-03-03T15:42:18.201Z,8.74
2019-03-03T15:44:44.507Z,8.80
2019-03-03T15:47:10.815Z,9.23
2019-03-03T15:49:37.120Z,9.12
2019-03-03T15:52:03.428Z,8.92
2019-03-03T15:54:29.772Z,8.80
2019-03-03T15:56:56.830Z,8.74
2019-03-03T15:59:23.132Z,8.70
2019-03-03T16:01:49.445Z,8.67
2019-03-03T16:04:15.756Z,8.63
2019-03-03T16:06:42.064Z,8.58
2019-03-03T16:09:08.382Z,8.48
2019-03-03T16:11:34.742Z,8.41
2019-03-03T16:14:01.047Z,8.38
2019-03-03T16:16:27.386Z,8.38
2019-03-03T16:18:53.688Z,8.34
2019-03-03T16:21:19.998Z,8.31
2019-03-03T16:23:46.309Z,8.27
2019-03-03T16:26:12.625Z,8.26
2019-03-03T16:28:38.978Z,8.25
2019-03-03T16:31:05.281Z,8.18
2019-03-03T16:33:31.606Z,8.12
2019-03-03T16:35:57.927Z,8.08
2019-03-03T16:38:24.231Z,8.08
2019-03-03T16:40:50.568Z,8.06
2019-03-03T16:43:16.881Z,8.06
2019-03-03T16:45:43.199Z,8.07
2019-03-03T16:48:09.507Z,8.06
2019-03-03T16:50:35.817Z,8.03
2019-03-03T16:53:02.126Z,8.00
2019-03-03T16:55:28.437Z,7.98
2019-03-03T16:57:54.757Z,7.94
2019-03-03T17:00:21.055Z,7.91
2019-03-03T17:02:47.375Z,7.86
2019-03-03T17:05:13.675Z,7.84
2019-03-03T17:07:39.991Z,7.85
2019-03-03T17:10:06.306Z,7.84
2019-03-03T17:12:32.786Z,7.87
2019-03-03T17:14:59.059Z,7.88
2019-03-03T17:17:25.370Z,7.87
2019-03-03T17:19:52.617Z,7.89
2019-03-03T17:22:18.932Z,7.87
2019-03-03T17:24:45.254Z,7.86
2019-03-03T17:27:11.556Z,7.87
2019-03-03T17:29:37.882Z,7.86
2019-03-03T17:32:04.208Z,7.85
2019-03-03T17:34:30.685Z,7.84
2019-03-03T17:36:57.040Z,7.88
2019-03-03T17:39:23.355Z,7.89
2019-03-03T17:41:49.696Z,7.90
2019-03-03T17:44:16.011Z,7.85
2019-03-03T17:46:42.317Z,7.86
2019-03-03T17:49:08.625Z,7.87
2019-03-03T17:51:34.966Z,7.85
2019-03-03T17:54:01.267Z,7.88
2019-03-03T17:56:27.577Z,7.86
2019-03-03T17:58:53.922Z,7.81
2019-03-03T18:01:20.250Z,7.81
2019-03-03T18:03:46.562Z,7.81
2019-03-03T18:06:12.866Z,7.84
2019-03-03T18:08:39.178Z,7.77
2019-03-03T18:11:05.496Z,7.83
2019-03-03T18:13:31.806Z,7.81
2019-03-03T18:15:58.123Z,7.79
2019-03-03T18:18:35.299Z,7.84
2019-03-03T18:20:58.466Z,7.76
2019-03-03T18:23:35.890Z,7.69
2019-03-03T18:25:59.652Z,7.61
2019-03-03T18:28:25.956Z,7.51
2019-03-03T18:30:52.658Z,7.45
2019-03-03T18:33:18.955Z,7.40
2019-03-03T18:35:45.261Z,7.38
2019-03-03T18:38:11.585Z,7.36
2019-03-03T18:40:37.907Z,7.35
2019-03-03T18:43:04.219Z,7.35
2019-03-03T18:45:30.529Z,7.32
2019-03-03T18:47:57.745Z,7.24
2019-03-03T18:50:24.054Z,7.23
2019-03-03T18:52:52.647Z,7.25
2019-03-03T18:55:19.001Z,7.20
2019-03-03T18:57:45.576Z,7.14
2019-03-03T19:00:11.918Z,7.16
2019-03-03T19:02:38.279Z,7.16
2019-03-03T19:05:04.590Z,7.11
2019-03-03T19:07:30.898Z,7.03
2019-03-03T19:09:57.209Z,7.02
2019-03-03T19:12:23.573Z,6.99
2019-03-03T19:14:49.857Z,7.00
2019-03-03T19:17:16.180Z,6.95
2019-03-03T19:19:42.517Z,6.94
2019-03-03T19:22:08.833Z,6.90
2019-03-03T19:24:35.141Z,6.85
2019-03-03T19:27:01.454Z,6.86
2019-03-03T19:29:27.756Z,6.85
2019-03-03T19:31:54.070Z,6.78
2019-03-03T19:34:20.375Z,6.79
2019-03-03T19:36:46.684Z,6.80
2019-03-03T19:39:12.993Z,6.78
2019-03-03T19:41:39.302Z,6.76
2019-03-03T19:44:05.608Z,6.78
2019-03-03T19:46:31.914Z,6.82
2019-03-03T19:48:58.232Z,6.80
2019-03-03T19:51:24.538Z,6.77
2019-03-03T19:53:50.854Z,6.80
2019-03-03T19:56:17.162Z,6.81
2019-03-03T19:58:43.476Z,6.85
2019-03-03T20:01:09.782Z,6.86
2019-03-03T20:03:36.095Z,6.83
2019-03-03T20:06:02.407Z,6.84
2019-03-03T20:08:28.719Z,6.87
2019-03-03T20:10:55.030Z,6.95
2019-03-03T20:13:21.341Z,7.06
2019-03-03T20:15:47.698Z,6.96
2019-03-03T20:18:14.005Z,6.98
2019-03-03T20:20:40.313Z,7.03
2019-03-03T20:23:06.616Z,6.94
2019-03-03T20:25:32.931Z,6.84
2019-03-03T20:27:59.249Z,6.73
2019-03-03T20:30:25.568Z,6.61
2019-03-03T20:32:51.888Z,6.57
2019-03-03T20:35:18.184Z,6.62
2019-03-03T20:37:44.492Z,6.58
2019-03-03T20:40:10.801Z,6.13
2019-03-03T20:42:37.151Z,5.86
2019-03-03T20:45:03.452Z,5.73
2019-03-03T20:47:30.995Z,5.54
2019-03-03T20:49:56.068Z,5.24
2019-03-03T20:52:22.375Z,5.07
2019-03-03T20:54:48.731Z,5.00
2019-03-03T20:57:15.079Z,4.89
2019-03-03T20:59:41.384Z,4.93
2019-03-03T21:02:07.692Z,4.85
2019-03-03T21:04:34.004Z,4.79
2019-03-03T21:07:00.312Z,4.77
2019-03-03T21:09:26.640Z,4.76
2019-03-03T21:11:52.951Z,4.71
2019-03-03T21:14:19.261Z,4.64
2019-03-03T21:16:45.575Z,4.61
2019-03-03T21:19:11.885Z,4.56
2019-03-03T21:21:38.198Z,4.43
2019-03-03T21:24:04.506Z,4.43
2019-03-03T21:26:30.822Z,4.42
2019-03-03T21:28:57.157Z,4.41
2019-03-03T21:31:23.470Z,4.47
2019-03-03T21:33:49.797Z,4.39
2019-03-03T21:36:16.156Z,4.31
2019-03-03T21:38:42.543Z,4.26
2019-03-03T21:41:08.875Z,4.25
2019-03-03T21:43:35.226Z,4.20
2019-03-03T21:46:01.575Z,4.16
2019-03-03T21:48:28.014Z,4.09
2019-03-03T21:50:54.285Z,4.06
2019-03-03T21:53:20.661Z,4.00
2019-03-03T21:55:46.969Z,3.91
2019-03-03T21:58:13.282Z,3.93
2019-03-03T22:00:39.594Z,4.06
2019-03-03T22:03:05.906Z,3.98
2019-03-03T22:05:32.213Z,3.90
2019-03-03T22:07:58.552Z,3.89
2019-03-03T22:10:24.862Z,3.92
2019-03-03T22:12:51.180Z,3.85
2019-03-03T22:15:17.484Z,3.81
2019-03-03T22:17:43.862Z,3.76
2019-03-03T22:20:10.170Z,3.57
2019-03-03T22:22:36.479Z,3.45
2019-03-03T22:25:02.833Z,3.40
2019-03-03T22:27:29.140Z,3.43
2019-03-03T22:29:57.335Z,3.39
2019-03-03T22:32:23.745Z,3.49
2019-03-03T22:34:50.179Z,3.52
2019-03-03T22:37:16.488Z,3.63
2019-03-03T22:39:42.939Z,3.53
2019-03-03T22:42:09.258Z,3.39
2019-03-03T22:44:35.579Z,3.35
2019-03-03T22:47:01.908Z,3.41
2019-03-03T22:49:28.216Z,3.39
2019-03-03T22:51:54.529Z,3.27
2019-03-03T22:54:20.838Z,3.21
2019-03-03T22:56:47.157Z,3.23
2019-03-03T22:59:13.463Z,3.17
2019-03-03T23:01:39.824Z,3.14
2019-03-03T23:04:06.134Z,3.00
2019-03-03T23:06:32.460Z,2.87
2019-03-03T23:08:58.847Z,2.93
2019-03-03T23:11:25.227Z,2.94
2019-03-03T23:13:51.690Z,2.88
2019-03-03T23:16:18.025Z,2.81
2019-03-03T23:18:44.443Z,2.75
2019-03-03T23:21:10.798Z,2.64
2019-03-03T23:23:37.218Z,2.56
2019-03-03T23:26:03.685Z,2.48
2019-03-03T23:28:30.087Z,2.44
2019-03-03T23:30:56.396Z,2.46
2019-03-03T23:33:22.733Z,2.51
2019-03-03T23:35:49.050Z,2.53
2019-03-03T23:38:15.381Z,2.31
2019-03-03T23:40:41.691Z,2.41
2019-03-03T23:43:07.997Z,2.42
2019-03-03T23:45:34.336Z,2.28
2019-03-03T23:48:00.647Z,2.24
2019-03-03T23:50:26.983Z,2.18
2019-03-03T23:52:53.311Z,2.17
2019-03-03T23:55:19.620Z,2.12
2019-03-03T23:57:45.936Z,2.17
